sensor_id;sensor_type;location;lat;lon;timestamp;pressure;altitude;pressure_sealevel;temperature;humidity
44872;BME280;30602;51.060;17.226;2023-07-08T00:03:05;102150.49;;;12.76;95.86
44872;BME280;30602;51.060;17.226;2023-07-08T00:06:45;102146.79;;;12.68;95.98
44872;BME280;30602;51.060;17.226;2023-07-08T00:10:26;102146.50;;;12.65;95.79
44872;BME280;30602;51.060;17.226;2023-07-08T00:14:31;102148.22;;;12.66;96.36
44872;BME280;30602;51.060;17.226;2023-07-08T00:18:35;102152.51;;;12.70;96.39
44872;BME280;30602;51.060;17.226;2023-07-08T00:22:21;102152.97;;;12.68;96.39
44872;BME280;30602;51.060;17.226;2023-07-08T00:26:21;102149.06;;;12.51;96.28
44872;BME280;30602;51.060;17.226;2023-07-08T00:29:50;102150.73;;;12.45;96.68
44872;BME280;30602;51.060;17.226;2023-07-08T00:33:38;102152.37;;;12.33;96.01
44872;BME280;30602;51.060;17.226;2023-07-08T00:37:03;102156.80;;;12.27;95.22
44872;BME280;30602;51.060;17.226;2023-07-08T00:40:33;102148.30;;;12.25;95.63
44872;BME280;30602;51.060;17.226;2023-07-08T00:44:39;102147.65;;;12.24;95.95
44872;BME280;30602;51.060;17.226;2023-07-08T00:56:21;102137.72;;;12.37;98.82
44872;BME280;30602;51.060;17.226;2023-07-08T01:00:16;102136.94;;;12.42;98.78
44872;BME280;30602;51.060;17.226;2023-07-08T01:04:24;102135.46;;;12.47;98.72
44872;BME280;30602;51.060;17.226;2023-07-08T01:07:53;102139.30;;;12.42;98.21
44872;BME280;30602;51.060;17.226;2023-07-08T01:11:55;102137.66;;;12.28;97.18
44872;BME280;30602;51.060;17.226;2023-07-08T01:15:25;102134.34;;;12.21;97.23
44872;BME280;30602;51.060;17.226;2023-07-08T01:18:53;102130.55;;;12.14;96.86
44872;BME280;30602;51.060;17.226;2023-07-08T01:22:35;102130.84;;;12.20;96.80
44872;BME280;30602;51.060;17.226;2023-07-08T01:26:19;102131.38;;;12.15;96.38
44872;BME280;30602;51.060;17.226;2023-07-08T01:29:44;102130.85;;;12.09;96.38
44872;BME280;30602;51.060;17.226;2023-07-08T01:33:32;102128.76;;;12.07;98.39
44872;BME280;30602;51.060;17.226;2023-07-08T01:40:57;102126.94;;;12.02;97.65
44872;BME280;30602;51.060;17.226;2023-07-08T01:44:34;102124.98;;;11.96;96.95
44872;BME280;30602;51.060;17.226;2023-07-08T01:48:10;102128.69;;;11.91;97.38
44872;BME280;30602;51.060;17.226;2023-07-08T01:56:11;102123.99;;;11.79;97.82
44872;BME280;30602;51.060;17.226;2023-07-08T01:59:36;102121.41;;;11.85;98.07
44872;BME280;30602;51.060;17.226;2023-07-08T02:03:33;102127.88;;;11.74;96.91
44872;BME280;30602;51.060;17.226;2023-07-08T02:07:31;102119.80;;;11.77;97.06
44872;BME280;30602;51.060;17.226;2023-07-08T02:11:42;102122.61;;;11.73;97.14
44872;BME280;30602;51.060;17.226;2023-07-08T02:15:17;102125.57;;;11.80;98.02
44872;BME280;30602;51.060;17.226;2023-07-08T02:23:14;102123.66;;;11.81;99.37
44872;BME280;30602;51.060;17.226;2023-07-08T02:27:04;102126.82;;;11.70;97.57
44872;BME280;30602;51.060;17.226;2023-07-08T02:31:06;102127.27;;;11.61;97.71
44872;BME280;30602;51.060;17.226;2023-07-08T02:35:08;102117.23;;;11.52;97.82
44872;BME280;30602;51.060;17.226;2023-07-08T02:38:33;102134.73;;;11.42;97.21
44872;BME280;30602;51.060;17.226;2023-07-08T02:42:54;102132.63;;;11.32;97.75
44872;BME280;30602;51.060;17.226;2023-07-08T02:46:52;102125.64;;;11.00;94.99
44872;BME280;30602;51.060;17.226;2023-07-08T02:50:37;102134.73;;;10.94;93.99
44872;BME280;30602;51.060;17.226;2023-07-08T02:54:47;102131.29;;;10.82;95.09
44872;BME280;30602;51.060;17.226;2023-07-08T02:59:00;102125.25;;;10.71;95.76
44872;BME280;30602;51.060;17.226;2023-07-08T03:02:38;102130.55;;;10.80;97.84
44872;BME280;30602;51.060;17.226;2023-07-08T03:06:50;102123.52;;;10.90;99.94
44872;BME280;30602;51.060;17.226;2023-07-08T03:10:57;102123.98;;;11.12;100.00
44872;BME280;30602;51.060;17.226;2023-07-08T03:14:22;102122.25;;;11.17;100.00
44872;BME280;30602;51.060;17.226;2023-07-08T03:18:11;102130.45;;;11.25;100.00
44872;BME280;30602;51.060;17.226;2023-07-08T03:22:23;102110.16;;;11.17;100.00
44872;BME280;30602;51.060;17.226;2023-07-08T03:26:30;102133.23;;;11.36;100.00
44872;BME280;30602;51.060;17.226;2023-07-08T03:29:58;102135.99;;;11.49;100.00
44872;BME280;30602;51.060;17.226;2023-07-08T03:33:44;102121.55;;;11.61;100.00
44872;BME280;30602;51.060;17.226;2023-07-08T03:37:14;102126.10;;;11.85;100.00
44872;BME280;30602;51.060;17.226;2023-07-08T03:40:59;102125.20;;;12.00;100.00
44872;BME280;30602;51.060;17.226;2023-07-08T03:44:27;102123.41;;;12.12;100.00
44872;BME280;30602;51.060;17.226;2023-07-08T03:47:58;102122.91;;;12.21;100.00
44872;BME280;30602;51.060;17.226;2023-07-08T03:51:49;102123.50;;;12.38;100.00
44872;BME280;30602;51.060;17.226;2023-07-08T03:55:36;102120.86;;;12.56;100.00
44872;BME280;30602;51.060;17.226;2023-07-08T03:59:00;102121.68;;;12.73;100.00
44872;BME280;30602;51.060;17.226;2023-07-08T04:02:49;102119.31;;;12.91;100.00
44872;BME280;30602;51.060;17.226;2023-07-08T04:06:57;102115.95;;;13.01;100.00
44872;BME280;30602;51.060;17.226;2023-07-08T04:10:57;102110.55;;;13.19;100.00
44872;BME280;30602;51.060;17.226;2023-07-08T04:14:37;102122.48;;;13.42;100.00
44872;BME280;30602;51.060;17.226;2023-07-08T04:18:32;102120.19;;;13.62;100.00
44872;BME280;30602;51.060;17.226;2023-07-08T04:22:04;102120.05;;;13.80;100.00
44872;BME280;30602;51.060;17.226;2023-07-08T04:25:56;102121.02;;;13.94;100.00
44872;BME280;30602;51.060;17.226;2023-07-08T04:29:54;102120.38;;;14.19;100.00
44872;BME280;30602;51.060;17.226;2023-07-08T04:33:23;102112.95;;;14.42;100.00
44872;BME280;30602;51.060;17.226;2023-07-08T04:37:25;102114.08;;;14.57;100.00
44872;BME280;30602;51.060;17.226;2023-07-08T04:41:11;102118.33;;;14.86;100.00
44872;BME280;30602;51.060;17.226;2023-07-08T04:45:17;102114.98;;;15.06;100.00
44872;BME280;30602;51.060;17.226;2023-07-08T04:49:49;102115.48;;;15.23;99.82
44872;BME280;30602;51.060;17.226;2023-07-08T04:53:52;102115.11;;;15.62;96.21
44872;BME280;30602;51.060;17.226;2023-07-08T04:57:43;102114.89;;;15.79;98.27
44872;BME280;30602;51.060;17.226;2023-07-08T05:01:42;102112.99;;;16.15;96.55
44872;BME280;30602;51.060;17.226;2023-07-08T05:05:28;102105.92;;;16.37;95.93
44872;BME280;30602;51.060;17.226;2023-07-08T05:08:54;102104.25;;;16.55;93.87
44872;BME280;30602;51.060;17.226;2023-07-08T05:13:07;102103.14;;;16.73;95.40
44872;BME280;30602;51.060;17.226;2023-07-08T05:16:48;102103.84;;;16.84;94.31
44872;BME280;30602;51.060;17.226;2023-07-08T05:20:36;102103.30;;;17.07;93.79
44872;BME280;30602;51.060;17.226;2023-07-08T05:24:29;102103.04;;;17.39;92.05
44872;BME280;30602;51.060;17.226;2023-07-08T05:28:17;102106.80;;;17.57;90.53
44872;BME280;30602;51.060;17.226;2023-07-08T05:32:28;102103.71;;;17.67;90.08
44872;BME280;30602;51.060;17.226;2023-07-08T05:36:19;102096.49;;;17.83;90.31
44872;BME280;30602;51.060;17.226;2023-07-08T05:39:48;102095.95;;;17.97;91.23
44872;BME280;30602;51.060;17.226;2023-07-08T05:43:38;102097.01;;;18.19;88.99
44872;BME280;30602;51.060;17.226;2023-07-08T05:47:54;102095.59;;;18.44;90.51
44872;BME280;30602;51.060;17.226;2023-07-08T05:51:59;102096.25;;;18.75;86.04
44872;BME280;30602;51.060;17.226;2023-07-08T05:56:23;102099.66;;;18.95;85.62
44872;BME280;30602;51.060;17.226;2023-07-08T06:00:05;102102.50;;;18.97;85.46
44872;BME280;30602;51.060;17.226;2023-07-08T06:04:14;102104.52;;;19.04;86.51
44872;BME280;30602;51.060;17.226;2023-07-08T06:08:01;102106.14;;;19.52;84.10
44872;BME280;30602;51.060;17.226;2023-07-08T06:11:51;102105.45;;;19.53;83.60
44872;BME280;30602;51.060;17.226;2023-07-08T06:15:24;102097.55;;;19.58;81.83
44872;BME280;30602;51.060;17.226;2023-07-08T06:19:11;102098.58;;;19.73;82.62
44872;BME280;30602;51.060;17.226;2023-07-08T06:23:15;102093.71;;;19.77;82.70
44872;BME280;30602;51.060;17.226;2023-07-08T06:27:14;102026.38;;;19.48;81.35
44872;BME280;30602;51.060;17.226;2023-07-08T06:30:51;102085.48;;;20.32;77.83
44872;BME280;30602;51.060;17.226;2023-07-08T06:38:51;102071.23;;;20.63;77.23
44872;BME280;30602;51.060;17.226;2023-07-08T06:42:14;102083.73;;;20.64;76.65
44872;BME280;30602;51.060;17.226;2023-07-08T06:46:02;102088.14;;;20.75;76.25
44872;BME280;30602;51.060;17.226;2023-07-08T06:49:30;102085.84;;;21.02;74.87
44872;BME280;30602;51.060;17.226;2023-07-08T06:53:07;102083.50;;;21.44;73.97
44872;BME280;30602;51.060;17.226;2023-07-08T06:56:28;102080.22;;;21.88;70.68
44872;BME280;30602;51.060;17.226;2023-07-08T07:00:12;102075.55;;;22.25;71.74
44872;BME280;30602;51.060;17.226;2023-07-08T07:03:54;102086.34;;;22.15;70.49
44872;BME280;30602;51.060;17.226;2023-07-08T07:07:39;102085.02;;;22.24;70.09
44872;BME280;30602;51.060;17.226;2023-07-08T07:11:45;102084.76;;;22.44;70.06
44872;BME280;30602;51.060;17.226;2023-07-08T07:15:50;102084.07;;;22.68;68.64
44872;BME280;30602;51.060;17.226;2023-07-08T07:19:42;102082.38;;;22.98;66.35
44872;BME280;30602;51.060;17.226;2023-07-08T07:23:06;102086.74;;;23.05;63.89
44872;BME280;30602;51.060;17.226;2023-07-08T07:27:03;102012.45;;;22.66;63.61
44872;BME280;30602;51.060;17.226;2023-07-08T07:31:18;102087.17;;;23.29;62.08
44872;BME280;30602;51.060;17.226;2023-07-08T07:34:41;102091.34;;;23.60;61.76
44872;BME280;30602;51.060;17.226;2023-07-08T07:38:02;102090.98;;;23.85;59.26
44872;BME280;30602;51.060;17.226;2023-07-08T07:41:23;102091.79;;;24.00;57.43
44872;BME280;30602;51.060;17.226;2023-07-08T07:44:47;102090.46;;;24.02;57.00
44872;BME280;30602;51.060;17.226;2023-07-08T07:48:13;102087.13;;;24.25;54.68
44872;BME280;30602;51.060;17.226;2023-07-08T07:51:40;102089.80;;;24.31;54.46
44872;BME280;30602;51.060;17.226;2023-07-08T07:55:35;102090.02;;;24.48;50.98
44872;BME280;30602;51.060;17.226;2023-07-08T07:59:25;102089.52;;;24.56;52.10
44872;BME280;30602;51.060;17.226;2023-07-08T08:03:07;102082.42;;;24.81;51.94
44872;BME280;30602;51.060;17.226;2023-07-08T08:06:52;102079.65;;;25.08;50.48
44872;BME280;30602;51.060;17.226;2023-07-08T08:10:36;102076.22;;;24.95;46.61
44872;BME280;30602;51.060;17.226;2023-07-08T08:14:22;102076.91;;;24.93;46.41
44872;BME280;30602;51.060;17.226;2023-07-08T08:18:37;102080.27;;;25.16;45.25
44872;BME280;30602;51.060;17.226;2023-07-08T08:22:25;102080.33;;;25.39;46.94
44872;BME280;30602;51.060;17.226;2023-07-08T08:26:02;102076.68;;;25.54;45.26
44872;BME280;30602;51.060;17.226;2023-07-08T08:30:06;102076.22;;;25.61;45.33
44872;BME280;30602;51.060;17.226;2023-07-08T08:33:36;102075.52;;;25.74;43.42
44872;BME280;30602;51.060;17.226;2023-07-08T08:37:19;102065.83;;;25.68;42.13
44872;BME280;30602;51.060;17.226;2023-07-08T08:41:33;102074.91;;;25.79;42.40
44872;BME280;30602;51.060;17.226;2023-07-08T08:46:02;102066.96;;;26.13;44.01
44872;BME280;30602;51.060;17.226;2023-07-08T08:49:55;102065.54;;;26.26;42.45
44872;BME280;30602;51.060;17.226;2023-07-08T08:54:15;102068.77;;;26.30;42.62
44872;BME280;30602;51.060;17.226;2023-07-08T09:01:48;102056.94;;;26.59;40.58
44872;BME280;30602;51.060;17.226;2023-07-08T09:05:41;102057.85;;;26.71;39.45
44872;BME280;30602;51.060;17.226;2023-07-08T09:09:18;102054.99;;;26.75;42.64
44872;BME280;30602;51.060;17.226;2023-07-08T09:13:47;102054.73;;;26.53;39.95
44872;BME280;30602;51.060;17.226;2023-07-08T09:17:21;102051.38;;;26.75;35.61
44872;BME280;30602;51.060;17.226;2023-07-08T09:20:50;102046.74;;;26.88;34.80
44872;BME280;30602;51.060;17.226;2023-07-08T09:25:04;102044.90;;;27.05;37.19
44872;BME280;30602;51.060;17.226;2023-07-08T09:29:34;102043.87;;;27.18;38.56
44872;BME280;30602;51.060;17.226;2023-07-08T09:33:38;102040.57;;;27.22;40.03
44872;BME280;30602;51.060;17.226;2023-07-08T09:37:48;102034.94;;;27.36;38.34
44872;BME280;30602;51.060;17.226;2023-07-08T09:41:35;102028.61;;;27.41;35.29
44872;BME280;30602;51.060;17.226;2023-07-08T09:46:02;102026.05;;;27.50;35.80
44872;BME280;30602;51.060;17.226;2023-07-08T09:50:25;102012.23;;;27.53;33.58
44872;BME280;30602;51.060;17.226;2023-07-08T09:53:51;102017.49;;;27.66;30.70
44872;BME280;30602;51.060;17.226;2023-07-08T09:57:52;102012.44;;;27.82;37.16
44872;BME280;30602;51.060;17.226;2023-07-08T10:01:41;102012.14;;;27.85;35.47
44872;BME280;30602;51.060;17.226;2023-07-08T10:10:16;102013.05;;;27.76;33.23
44872;BME280;30602;51.060;17.226;2023-07-08T10:13:50;102019.23;;;27.77;32.39
44872;BME280;30602;51.060;17.226;2023-07-08T10:18:28;102011.97;;;27.62;34.32
44872;BME280;30602;51.060;17.226;2023-07-08T10:23:08;102008.57;;;28.00;35.91
44872;BME280;30602;51.060;17.226;2023-07-08T10:27:03;102004.38;;;27.96;32.67
44872;BME280;30602;51.060;17.226;2023-07-08T10:42:41;101994.34;;;27.97;29.89
44872;BME280;30602;51.060;17.226;2023-07-08T11:10:27;101978.23;;;28.35;30.04
44872;BME280;30602;51.060;17.226;2023-07-08T11:14:42;101975.93;;;28.41;29.58
44872;BME280;30602;51.060;17.226;2023-07-08T11:30:30;101965.48;;;28.38;30.35
44872;BME280;30602;51.060;17.226;2023-07-08T11:38:33;101966.49;;;28.30;31.06
44872;BME280;30602;51.060;17.226;2023-07-08T11:42:20;101965.48;;;28.48;31.22
44872;BME280;30602;51.060;17.226;2023-07-08T11:46:55;101960.81;;;28.48;31.15
44872;BME280;30602;51.060;17.226;2023-07-08T11:50:45;101962.88;;;28.41;30.23
44872;BME280;30602;51.060;17.226;2023-07-08T11:54:46;101956.22;;;28.28;33.55
44872;BME280;30602;51.060;17.226;2023-07-08T11:59:20;101944.12;;;28.66;34.75
44872;BME280;30602;51.060;17.226;2023-07-08T12:02:55;101940.49;;;28.99;32.58
44872;BME280;30602;51.060;17.226;2023-07-08T12:06:46;101936.64;;;29.09;34.25
44872;BME280;30602;51.060;17.226;2023-07-08T12:13:42;101928.28;;;29.26;35.28
44872;BME280;30602;51.060;17.226;2023-07-08T12:22:09;101925.00;;;29.39;33.26
44872;BME280;30602;51.060;17.226;2023-07-08T12:26:08;101921.80;;;29.41;31.92
44872;BME280;30602;51.060;17.226;2023-07-08T12:29:53;101925.14;;;29.36;30.22
44872;BME280;30602;51.060;17.226;2023-07-08T12:33:38;101922.00;;;29.23;30.10
44872;BME280;30602;51.060;17.226;2023-07-08T12:37:27;101919.16;;;29.20;30.44
44872;BME280;30602;51.060;17.226;2023-07-08T12:41:03;101915.63;;;29.17;31.05
44872;BME280;30602;51.060;17.226;2023-07-08T12:44:47;101911.42;;;29.05;30.74
44872;BME280;30602;51.060;17.226;2023-07-08T12:48:11;101908.09;;;29.11;32.56
44872;BME280;30602;51.060;17.226;2023-07-08T12:51:43;101905.66;;;29.39;32.68
44872;BME280;30602;51.060;17.226;2023-07-08T12:55:29;101908.73;;;29.32;31.69
44872;BME280;30602;51.060;17.226;2023-07-08T13:03:29;101899.40;;;29.15;28.86
44872;BME280;30602;51.060;17.226;2023-07-08T13:07:34;101895.09;;;29.17;29.89
44872;BME280;30602;51.060;17.226;2023-07-08T13:11:00;101896.96;;;29.33;32.93
44872;BME280;30602;51.060;17.226;2023-07-08T13:15:17;101892.84;;;29.45;32.22
44872;BME280;30602;51.060;17.226;2023-07-08T13:19:05;101887.45;;;29.48;31.75
44872;BME280;30602;51.060;17.226;2023-07-08T13:23:01;101886.65;;;29.29;27.91
44872;BME280;30602;51.060;17.226;2023-07-08T13:26:46;101882.05;;;29.40;30.97
44872;BME280;30602;51.060;17.226;2023-07-08T13:30:49;101881.06;;;29.49;30.44
44872;BME280;30602;51.060;17.226;2023-07-08T13:34:32;101875.54;;;29.56;30.03
44872;BME280;30602;51.060;17.226;2023-07-08T13:38:21;101871.52;;;29.43;25.57
44872;BME280;30602;51.060;17.226;2023-07-08T13:41:59;101867.05;;;29.65;25.69
44872;BME280;30602;51.060;17.226;2023-07-08T13:45:44;101868.61;;;29.79;26.46
44872;BME280;30602;51.060;17.226;2023-07-08T13:49:43;101863.23;;;29.76;27.17
44872;BME280;30602;51.060;17.226;2023-07-08T13:54:00;101857.80;;;29.52;26.56
44872;BME280;30602;51.060;17.226;2023-07-08T14:01:25;101852.20;;;29.72;30.12
44872;BME280;30602;51.060;17.226;2023-07-08T14:04:54;101857.90;;;29.81;24.95
44872;BME280;30602;51.060;17.226;2023-07-08T14:08:29;101845.42;;;29.69;26.56
44872;BME280;30602;51.060;17.226;2023-07-08T14:11:59;101851.28;;;29.60;25.83
44872;BME280;30602;51.060;17.226;2023-07-08T14:15:45;101850.91;;;29.67;26.55
44872;BME280;30602;51.060;17.226;2023-07-08T14:19:13;101847.41;;;29.68;29.53
44872;BME280;30602;51.060;17.226;2023-07-08T14:22:58;101847.95;;;29.56;26.66
44872;BME280;30602;51.060;17.226;2023-07-08T14:26:45;101848.62;;;29.33;25.97
44872;BME280;30602;51.060;17.226;2023-07-08T14:35:04;101854.00;;;29.25;26.93
44872;BME280;30602;51.060;17.226;2023-07-08T14:38:59;101856.16;;;29.20;24.94
44872;BME280;30602;51.060;17.226;2023-07-08T14:42:26;101852.85;;;29.28;26.44
44872;BME280;30602;51.060;17.226;2023-07-08T14:46:12;101848.38;;;29.13;25.92
44872;BME280;30602;51.060;17.226;2023-07-08T14:49:46;101831.30;;;29.24;27.14
44872;BME280;30602;51.060;17.226;2023-07-08T14:53:33;101841.73;;;29.49;30.62
44872;BME280;30602;51.060;17.226;2023-07-08T14:57:16;101839.66;;;29.36;29.36
44872;BME280;30602;51.060;17.226;2023-07-08T15:01:19;101837.98;;;29.44;28.72
44872;BME280;30602;51.060;17.226;2023-07-08T15:04:56;101837.76;;;29.61;29.31
44872;BME280;30602;51.060;17.226;2023-07-08T15:08:22;101835.97;;;29.42;27.97
44872;BME280;30602;51.060;17.226;2023-07-08T15:12:39;101833.54;;;29.19;27.17
44872;BME280;30602;51.060;17.226;2023-07-08T15:16:27;101832.88;;;29.32;29.63
44872;BME280;30602;51.060;17.226;2023-07-08T15:19:59;101829.73;;;29.13;30.37
44872;BME280;30602;51.060;17.226;2023-07-08T15:23:26;101829.61;;;29.11;31.64
44872;BME280;30602;51.060;17.226;2023-07-08T15:27:13;101827.87;;;29.10;28.86
44872;BME280;30602;51.060;17.226;2023-07-08T15:30:38;101827.03;;;29.14;29.92
44872;BME280;30602;51.060;17.226;2023-07-08T15:34:22;101824.30;;;29.10;30.20
44872;BME280;30602;51.060;17.226;2023-07-08T15:38:10;101825.83;;;28.82;33.40
44872;BME280;30602;51.060;17.226;2023-07-08T15:41:34;101820.89;;;28.67;33.68
44872;BME280;30602;51.060;17.226;2023-07-08T15:49:22;101828.06;;;28.36;33.32
44872;BME280;30602;51.060;17.226;2023-07-08T15:52:53;101826.82;;;28.34;32.91
44872;BME280;30602;51.060;17.226;2023-07-08T15:56:52;101817.02;;;28.46;32.84
44872;BME280;30602;51.060;17.226;2023-07-08T16:01:01;101821.32;;;28.32;30.03
44872;BME280;30602;51.060;17.226;2023-07-08T16:04:37;101803.02;;;28.14;29.00
44872;BME280;30602;51.060;17.226;2023-07-08T16:08:35;101820.84;;;28.35;30.22
44872;BME280;30602;51.060;17.226;2023-07-08T16:12:03;101816.61;;;28.44;31.18
44872;BME280;30602;51.060;17.226;2023-07-08T16:16:05;101818.88;;;28.46;30.12
44872;BME280;30602;51.060;17.226;2023-07-08T16:19:42;101815.85;;;28.43;31.42
44872;BME280;30602;51.060;17.226;2023-07-08T16:23:59;101815.64;;;28.18;31.58
44872;BME280;30602;51.060;17.226;2023-07-08T16:27:37;101813.22;;;28.10;32.64
44872;BME280;30602;51.060;17.226;2023-07-08T16:35:00;101814.91;;;28.08;29.96
44872;BME280;30602;51.060;17.226;2023-07-08T16:42:48;101808.79;;;28.72;30.81
44872;BME280;30602;51.060;17.226;2023-07-08T16:46:45;101804.16;;;28.88;29.94
44872;BME280;30602;51.060;17.226;2023-07-08T16:50:19;101805.63;;;28.57;31.16
44872;BME280;30602;51.060;17.226;2023-07-08T16:57:31;101812.20;;;27.97;32.81
44872;BME280;30602;51.060;17.226;2023-07-08T17:04:45;101806.69;;;27.65;39.94
44872;BME280;30602;51.060;17.226;2023-07-08T17:08:34;101813.20;;;27.39;43.40
44872;BME280;30602;51.060;17.226;2023-07-08T17:12:17;101812.45;;;27.18;45.36
44872;BME280;30602;51.060;17.226;2023-07-08T17:16:02;101808.73;;;26.92;44.76
44872;BME280;30602;51.060;17.226;2023-07-08T17:19:41;101808.88;;;26.79;41.98
44872;BME280;30602;51.060;17.226;2023-07-08T17:23:15;101804.71;;;26.72;41.40
44872;BME280;30602;51.060;17.226;2023-07-08T17:27:12;101806.66;;;26.74;40.79
44872;BME280;30602;51.060;17.226;2023-07-08T17:31:22;101809.02;;;26.61;43.59
44872;BME280;30602;51.060;17.226;2023-07-08T17:34:45;101804.83;;;26.47;45.20
44872;BME280;30602;51.060;17.226;2023-07-08T17:42:07;101800.88;;;25.98;54.95
44872;BME280;30602;51.060;17.226;2023-07-08T17:45:52;101802.29;;;25.56;56.03
44872;BME280;30602;51.060;17.226;2023-07-08T17:49:39;101799.33;;;25.46;57.78
44872;BME280;30602;51.060;17.226;2023-07-08T17:58:03;101796.80;;;25.41;56.75
44872;BME280;30602;51.060;17.226;2023-07-08T18:02:28;101798.16;;;25.27;59.44
44872;BME280;30602;51.060;17.226;2023-07-08T18:06:10;101800.22;;;25.03;56.28
44872;BME280;30602;51.060;17.226;2023-07-08T18:09:35;101787.79;;;24.88;52.73
44872;BME280;30602;51.060;17.226;2023-07-08T18:13:36;101804.44;;;24.83;55.46
44872;BME280;30602;51.060;17.226;2023-07-08T18:17:21;101805.77;;;24.78;62.46
44872;BME280;30602;51.060;17.226;2023-07-08T18:21:35;101802.75;;;24.63;61.51
44872;BME280;30602;51.060;17.226;2023-07-08T18:28:54;101803.61;;;24.23;61.81
44872;BME280;30602;51.060;17.226;2023-07-08T18:32:28;101802.71;;;23.99;66.58
44872;BME280;30602;51.060;17.226;2023-07-08T18:36:08;101802.79;;;23.75;68.67
44872;BME280;30602;51.060;17.226;2023-07-08T18:39:37;101806.56;;;23.51;64.09
44872;BME280;30602;51.060;17.226;2023-07-08T18:43:19;101792.46;;;23.37;64.51
44872;BME280;30602;51.060;17.226;2023-07-08T18:47:18;101810.47;;;23.24;65.17
44872;BME280;30602;51.060;17.226;2023-07-08T18:50:49;101817.48;;;22.95;65.39
44872;BME280;30602;51.060;17.226;2023-07-08T18:54:17;101817.85;;;22.73;66.34
44872;BME280;30602;51.060;17.226;2023-07-08T18:58:16;101817.30;;;22.57;69.55
44872;BME280;30602;51.060;17.226;2023-07-08T19:01:48;101824.66;;;22.44;70.28
44872;BME280;30602;51.060;17.226;2023-07-08T19:05:30;101830.67;;;22.15;72.14
44872;BME280;30602;51.060;17.226;2023-07-08T19:09:43;101834.43;;;22.00;72.28
44872;BME280;30602;51.060;17.226;2023-07-08T19:13:49;101837.59;;;21.80;73.25
44872;BME280;30602;51.060;17.226;2023-07-08T19:17:32;101838.39;;;21.52;72.85
44872;BME280;30602;51.060;17.226;2023-07-08T19:21:26;101844.50;;;21.35;74.23
44872;BME280;30602;51.060;17.226;2023-07-08T19:25:20;101849.89;;;21.30;74.36
44872;BME280;30602;51.060;17.226;2023-07-08T19:29:15;101853.91;;;21.15;75.37
44872;BME280;30602;51.060;17.226;2023-07-08T19:36:35;101855.41;;;20.88;75.23
44872;BME280;30602;51.060;17.226;2023-07-08T19:40:13;101850.34;;;20.75;74.54
44872;BME280;30602;51.060;17.226;2023-07-08T19:43:59;101851.25;;;20.63;74.10
44872;BME280;30602;51.060;17.226;2023-07-08T19:47:44;101851.95;;;20.64;71.83
44872;BME280;30602;51.060;17.226;2023-07-08T19:51:54;101851.02;;;20.68;71.80
44872;BME280;30602;51.060;17.226;2023-07-08T19:55:18;101852.11;;;20.65;72.62
44872;BME280;30602;51.060;17.226;2023-07-08T19:59:19;101849.87;;;20.50;72.16
44872;BME280;30602;51.060;17.226;2023-07-08T20:02:48;101858.20;;;20.32;72.33
44872;BME280;30602;51.060;17.226;2023-07-08T20:06:24;101857.23;;;20.02;73.35
44872;BME280;30602;51.060;17.226;2023-07-08T20:09:56;101860.46;;;19.86;74.66
44872;BME280;30602;51.060;17.226;2023-07-08T20:13:23;101863.48;;;19.73;75.82
44872;BME280;30602;51.060;17.226;2023-07-08T20:16:50;101871.51;;;19.51;77.06
44872;BME280;30602;51.060;17.226;2023-07-08T20:20:41;101873.73;;;19.31;77.21
44872;BME280;30602;51.060;17.226;2023-07-08T20:24:30;101880.87;;;19.13;77.89
44872;BME280;30602;51.060;17.226;2023-07-08T20:27:59;101878.54;;;19.04;78.60
44872;BME280;30602;51.060;17.226;2023-07-08T20:31:47;101880.14;;;19.01;79.20
44872;BME280;30602;51.060;17.226;2023-07-08T20:35:43;101860.86;;;18.89;79.12
44872;BME280;30602;51.060;17.226;2023-07-08T20:39:26;101887.15;;;18.84;79.48
44872;BME280;30602;51.060;17.226;2023-07-08T20:42:50;101889.05;;;18.65;79.89
44872;BME280;30602;51.060;17.226;2023-07-08T20:46:41;101890.02;;;18.55;80.83
44872;BME280;30602;51.060;17.226;2023-07-08T20:50:19;101890.75;;;18.35;80.84
44872;BME280;30602;51.060;17.226;2023-07-08T20:53:48;101893.85;;;18.28;81.85
44872;BME280;30602;51.060;17.226;2023-07-08T20:57:47;101899.92;;;18.26;80.57
44872;BME280;30602;51.060;17.226;2023-07-08T21:01:22;101895.80;;;18.18;81.34
44872;BME280;30602;51.060;17.226;2023-07-08T21:04:52;101900.83;;;18.14;81.89
44872;BME280;30602;51.060;17.226;2023-07-08T21:08:26;101897.73;;;18.06;83.40
44872;BME280;30602;51.060;17.226;2023-07-08T21:12:28;101900.83;;;18.07;83.86
44872;BME280;30602;51.060;17.226;2023-07-08T21:16:13;101900.04;;;18.14;83.85
44872;BME280;30602;51.060;17.226;2023-07-08T21:20:01;101895.98;;;18.19;84.14
44872;BME280;30602;51.060;17.226;2023-07-08T21:23:25;101898.00;;;18.20;84.22
44872;BME280;30602;51.060;17.226;2023-07-08T21:27:01;101898.98;;;18.13;84.53
44872;BME280;30602;51.060;17.226;2023-07-08T21:30:32;101898.97;;;18.10;84.65
44872;BME280;30602;51.060;17.226;2023-07-08T21:34:01;101900.11;;;18.03;85.12
44872;BME280;30602;51.060;17.226;2023-07-08T21:37:49;101879.94;;;17.73;85.44
44872;BME280;30602;51.060;17.226;2023-07-08T21:41:35;101905.73;;;17.85;85.94
44872;BME280;30602;51.060;17.226;2023-07-08T21:46:06;101906.37;;;17.87;85.91
44872;BME280;30602;51.060;17.226;2023-07-08T21:49:49;101906.37;;;17.78;86.15
44872;BME280;30602;51.060;17.226;2023-07-08T21:53:47;101908.50;;;17.56;85.99